Time;durP1;ratioP1;P1;durP2;ratioP2;P2;SDS_P1;SDS_P2;PMS_P1;PMS_P2;Temp;Humidity;BMP_temperature;BMP_pressure;BME280_temperature;BME280_humidity;BME280_pressure;Samples;Min_cycle;Max_cycle;Signal;HPM_P1;HPM_P2
2022/12/06 00:01:21;;;;;;;25.55;13.35;;;6.40;73.10;;;;;;4985846;28;20050;-51
2022/12/06 00:03:52;;;;;;;25.58;13.90;;;6.40;73.10;;;;;;4980068;28;20049;-49
2022/12/06 00:06:20;;;;;;;20.88;13.60;;;6.40;73.20;;;;;;4998945;28;20634;-52
2022/12/06 00:08:48;;;;;;;20.98;13.02;;;6.40;73.20;;;;;;5001556;28;20089;-52
2022/12/06 00:11:20;;;;;;;20.08;13.63;;;6.40;73.30;;;;;;5010124;28;20442;-50
2022/12/06 00:13:52;;;;;;;19.42;12.73;;;6.40;73.30;;;;;;4996635;28;20503;-54
2022/12/06 00:16:19;;;;;;;21.85;12.65;;;6.40;73.40;;;;;;5000064;28;20438;-49
2022/12/06 00:18:46;;;;;;;16.23;12.27;;;6.40;73.30;;;;;;5008407;28;20038;-52
2022/12/06 00:21:17;;;;;;;20.02;13.07;;;6.40;73.20;;;;;;5000777;28;20042;-51
2022/12/06 00:23:47;;;;;;;19.90;13.27;;;6.40;73.30;;;;;;4986011;28;20397;-48
2022/12/06 00:26:14;;;;;;;22.85;14.05;;;6.40;73.40;;;;;;5000136;28;20041;-49
2022/12/06 00:28:57;;;;;;;20.70;12.95;;;6.40;73.50;;;;;;4970886;28;20435;-53
2022/12/06 00:31:25;;;;;;;18.00;13.35;;;6.50;73.50;;;;;;4979040;28;20556;-54
2022/12/06 00:33:57;;;;;;;17.17;12.65;;;6.50;73.50;;;;;;4994266;28;20041;-53
2022/12/06 00:36:36;;;;;;;18.92;12.77;;;6.50;73.60;;;;;;4992400;28;20039;-53
2022/12/06 00:39:09;;;;;;;19.85;12.25;;;6.50;73.90;;;;;;4986559;28;20066;-53
2022/12/06 00:41:36;;;;;;;23.83;12.40;;;6.50;73.70;;;;;;5000434;28;20043;-51
2022/12/06 00:44:05;;;;;;;16.17;11.75;;;6.50;73.60;;;;;;5000869;28;20441;-49
2022/12/06 00:46:33;;;;;;;21.58;12.85;;;6.50;73.70;;;;;;5001062;28;20533;-52
2022/12/06 00:49:01;;;;;;;20.95;12.55;;;6.50;73.70;;;;;;5009661;28;20629;-53
2022/12/06 00:51:30;;;;;;;18.95;12.32;;;6.50;73.70;;;;;;4994193;28;20050;-53
2022/12/06 00:53:57;;;;;;;16.65;11.80;;;6.50;73.80;;;;;;4992808;28;20038;-53
2022/12/06 00:56:24;;;;;;;17.27;12.30;;;6.50;73.80;;;;;;4993969;28;20446;-50
2022/12/06 00:58:51;;;;;;;19.70;12.57;;;6.50;74.00;;;;;;4996388;28;20043;-51
2022/12/06 01:01:24;;;;;;;20.05;12.80;;;6.50;74.00;;;;;;4988755;28;20045;-53
2022/12/06 01:03:56;;;;;;;17.38;13.55;;;6.50;74.00;;;;;;4983845;28;20121;-53
2022/12/06 01:06:29;;;;;;;19.73;12.57;;;6.50;74.00;;;;;;5009539;28;20053;-52
2022/12/06 01:08:58;;;;;;;20.13;12.10;;;6.50;73.90;;;;;;5009094;28;20050;-53
2022/12/06 01:11:25;;;;;;;18.63;13.20;;;6.60;73.90;;;;;;4999982;28;20050;-53
2022/12/06 01:13:52;;;;;;;20.63;13.05;;;6.60;74.00;;;;;;5007492;28;20677;-52
2022/12/06 01:16:23;;;;;;;20.38;13.35;;;6.60;74.60;;;;;;4993213;28;20093;-52
2022/12/06 01:18:56;;;;;;;18.50;12.20;;;6.60;74.10;;;;;;4986709;28;20569;-52
2022/12/06 01:21:24;;;;;;;19.48;13.77;;;6.60;74.10;;;;;;5001542;28;20096;-49
2022/12/06 01:23:53;;;;;;;20.00;13.15;;;6.60;74.10;;;;;;5004195;28;20046;-53
2022/12/06 01:26:29;;;;;;;19.20;13.48;;;6.60;74.10;;;;;;4993264;28;20039;-53
2022/12/06 01:28:57;;;;;;;25.15;13.70;;;6.60;74.10;;;;;;4995978;28;20117;-53
2022/12/06 01:31:24;;;;;;;23.88;13.25;;;6.60;74.10;;;;;;5002634;28;20046;-51
2022/12/06 01:33:51;;;;;;;25.95;12.70;;;6.60;74.10;;;;;;5011810;28;20046;-50
2022/12/06 01:36:20;;;;;;;21.05;12.18;;;6.60;74.20;;;;;;4995474;28;20050;-50
2022/12/06 01:38:52;;;;;;;21.48;11.68;;;6.70;74.10;;;;;;4992995;28;20079;-52
2022/12/06 01:41:23;;;;;;;18.95;13.18;;;6.70;74.30;;;;;;4992480;28;20045;-52
2022/12/06 01:43:50;;;;;;;25.10;12.75;;;6.70;74.20;;;;;;4992650;28;20050;-52
2022/12/06 01:46:23;;;;;;;21.75;12.82;;;6.70;74.20;;;;;;4992812;28;20050;-53
2022/12/06 01:48:56;;;;;;;20.23;12.82;;;6.70;74.30;;;;;;4996392;28;20046;-53
2022/12/06 01:51:25;;;;;;;20.30;12.00;;;6.70;74.10;;;;;;5001105;28;20494;-53
2022/12/06 01:53:53;;;;;;;23.70;13.02;;;6.70;74.10;;;;;;4998451;28;20042;-51
2022/12/06 01:56:23;;;;;;;24.52;13.13;;;6.70;74.10;;;;;;4986202;28;20038;-53
2022/12/06 01:58:54;;;;;;;22.63;12.43;;;6.70;74.10;;;;;;5003454;28;20038;-53
2022/12/06 02:01:21;;;;;;;18.67;12.43;;;6.70;74.30;;;;;;5004015;28;20037;-53
2022/12/06 02:03:48;;;;;;;20.13;12.73;;;6.70;74.30;;;;;;5011395;28;20104;-50
2022/12/06 02:06:16;;;;;;;18.35;12.27;;;6.70;74.30;;;;;;4994578;28;20511;-53
2022/12/06 02:08:44;;;;;;;19.63;12.38;;;6.70;74.50;;;;;;4989990;28;20045;-50
2022/12/06 02:11:16;;;;;;;18.13;12.63;;;6.70;74.60;;;;;;4996477;28;20076;-51
2022/12/06 02:13:43;;;;;;;17.77;12.50;;;6.70;74.60;;;;;;5004327;28;20053;-50
2022/12/06 02:16:34;;;;;;;23.73;13.35;;;6.80;75.10;;;;;;4989632;28;20034;-54
2022/12/06 02:19:26;;;;;;;18.17;13.23;;;6.80;74.50;;;;;;4993573;28;20045;-52
2022/12/06 02:22:10;;;;;;;20.42;12.80;;;6.80;74.70;;;;;;4971808;28;20047;-51
2022/12/06 02:24:42;;;;;;;20.38;12.65;;;6.80;74.40;;;;;;4990374;28;20583;-53
2022/12/06 02:27:43;;;;;;;18.20;12.77;;;6.80;74.40;;;;;;4990861;28;20454;-54
2022/12/06 02:30:29;;;;;;;22.25;13.32;;;6.80;74.80;;;;;;4992507;28;20046;-49
2022/12/06 02:33:04;;;;;;;21.38;13.15;;;6.80;75.00;;;;;;4988098;28;20070;-50
2022/12/06 02:35:51;;;;;;;19.48;12.55;;;6.80;74.50;;;;;;4997127;28;20052;-53
2022/12/06 02:38:35;;;;;;;20.13;12.15;;;6.90;74.70;;;;;;4999754;28;20117;-53
2022/12/06 02:41:06;;;;;;;;;;;6.90;74.90;;;;;;5011434;28;20121;-52
2022/12/06 02:43:40;;;;;;;19.83;11.07;;;6.90;75.30;;;;;;5002527;28;20373;-53
2022/12/06 02:46:08;;;;;;;20.60;13.55;;;6.90;74.20;;;;;;5001774;28;20042;-53
2022/12/06 02:48:38;;;;;;;19.58;13.48;;;6.90;74.30;;;;;;4991911;28;20046;-53
2022/12/06 02:51:12;;;;;;;20.88;13.52;;;6.90;74.40;;;;;;4990639;28;20046;-52
2022/12/06 02:53:50;;;;;;;19.35;14.10;;;6.90;74.70;;;;;;4986425;28;20036;-54
2022/12/06 02:56:18;;;;;;;21.80;14.13;;;7.00;74.80;;;;;;4999035;28;20406;-52
2022/12/06 02:58:45;;;;;;;19.20;13.25;;;7.00;74.80;;;;;;4971687;28;20082;-53
2022/12/06 03:01:26;;;;;;;18.25;13.07;;;7.00;74.90;;;;;;4975915;28;20513;-53
2022/12/06 03:04:11;;;;;;;21.75;14.32;;;7.00;75.10;;;;;;4992661;28;20047;-50
2022/12/06 03:06:47;;;;;;;17.90;13.48;;;7.00;75.00;;;;;;5010083;28;20687;-50
2022/12/06 03:09:50;;;;;;;18.27;12.10;;;7.10;74.90;;;;;;5002372;28;20117;-51
2022/12/06 03:12:30;;;;;;;21.38;13.50;;;7.10;75.20;;;;;;4992169;28;20121;-50
2022/12/06 03:15:10;;;;;;;21.70;13.95;;;7.10;74.70;;;;;;4990272;28;20282;-53
2022/12/06 03:17:47;;;;;;;18.63;12.35;;;7.10;74.60;;;;;;4987247;28;20056;-52
2022/12/06 03:20:41;;;;;;;21.05;13.32;;;7.10;74.80;;;;;;4980631;28;20049;-50
2022/12/06 03:23:20;;;;;;;20.77;13.73;;;7.20;75.10;;;;;;4991774;28;20077;-50
2022/12/06 03:25:49;;;;;;;21.30;12.60;;;7.20;75.10;;;;;;4983711;28;20405;-52
2022/12/06 03:28:20;;;;;;;20.27;13.52;;;7.20;74.90;;;;;;4978924;28;20050;-53
2022/12/06 03:30:50;;;;;;;19.33;13.52;;;7.20;74.90;;;;;;4982923;28;20145;-52
2022/12/06 03:33:22;;;;;;;21.02;14.73;;;7.20;75.00;;;;;;5000164;28;20108;-53
2022/12/06 03:35:52;;;;;;;21.80;13.82;;;7.30;75.10;;;;;;4995825;28;20080;-52
2022/12/06 03:38:30;;;;;;;22.65;14.23;;;7.30;75.10;;;;;;5010364;28;20042;-52
2022/12/06 03:41:00;;;;;;;20.60;12.77;;;7.30;75.70;;;;;;4994265;28;20045;-54
2022/12/06 03:43:31;;;;;;;24.88;13.45;;;7.30;74.90;;;;;;4999988;28;20120;-54
2022/12/06 03:46:07;;;;;;;23.15;14.32;;;7.30;74.80;;;;;;5008820;28;20423;-53
2022/12/06 03:48:38;;;;;;;28.88;14.70;;;7.30;74.70;;;;;;5005043;28;20070;-53
2022/12/06 03:51:12;;;;;;;19.55;13.27;;;7.30;74.80;;;;;;4997360;28;20121;-53
2022/12/06 03:53:50;;;;;;;20.35;13.48;;;7.40;74.90;;;;;;4997905;28;20046;-52
2022/12/06 03:56:17;;;;;;;21.58;13.73;;;7.40;75.10;;;;;;4989885;28;20077;-53
2022/12/06 03:58:47;;;;;;;23.10;13.45;;;7.40;74.90;;;;;;4987525;28;20053;-51
2022/12/06 04:01:16;;;;;;;20.75;12.38;;;7.40;75.10;;;;;;5002439;28;20045;-53
2022/12/06 04:03:45;;;;;;;18.88;12.45;;;7.40;75.10;;;;;;4993879;28;20128;-49
2022/12/06 04:06:12;;;;;;;19.83;12.43;;;7.40;75.10;;;;;;5004976;28;20042;-53
2022/12/06 04:08:41;;;;;;;18.45;11.30;;;7.50;75.20;;;;;;4989727;28;20047;-54
2022/12/06 04:11:08;;;;;;;19.33;12.60;;;7.40;75.30;;;;;;4997993;28;20058;-53
2022/12/06 04:13:37;;;;;;;20.05;11.60;;;7.50;75.30;;;;;;5008409;28;20077;-53
2022/12/06 04:18:09;;;;;;;15.45;10.90;;;7.50;75.30;;;;;;4998951;28;20056;-51
2022/12/06 04:18:54;;;;;;;17.27;11.07;;;7.50;75.40;;;;;;5000425;28;20049;-49
2022/12/06 04:23:59;;;;;;;18.98;12.05;;;7.60;75.40;;;;;;4992611;28;20039;-53
2022/12/06 04:26:33;;;;;;;16.63;10.82;;;7.60;75.40;;;;;;4988455;28;20118;-50
2022/12/06 04:40:06;;;;;;;15.30;9.70;;;7.70;75.30;;;;;;5008391;28;20477;-53
2022/12/06 04:45:21;;;;;;;15.95;10.32;;;7.70;75.30;;;;;;4994613;28;20129;-49
2022/12/06 04:47:52;;;;;;;17.77;11.05;;;7.70;75.20;;;;;;5000527;28;20053;-53
2022/12/06 04:50:19;;;;;;;14.40;10.00;;;7.70;75.40;;;;;;5004646;28;20117;-53
2022/12/06 04:52:45;;;;;;;18.70;11.73;;;7.70;75.30;;;;;;5007904;28;20305;-53
2022/12/06 04:55:14;;;;;;;15.35;10.38;;;7.70;75.30;;;;;;4987669;28;20034;-52
2022/12/06 04:57:41;;;;;;;13.65;9.80;;;7.70;75.30;;;;;;4988182;28;20391;-50
2022/12/06 05:00:08;;;;;;;12.60;8.93;;;7.70;75.20;;;;;;4985459;28;20049;-52
2022/12/06 05:02:41;;;;;;;15.15;9.70;;;7.70;75.20;;;;;;4981724;28;20562;-51
2022/12/06 05:05:10;;;;;;;13.75;8.88;;;7.70;75.30;;;;;;4987768;28;20038;-49
2022/12/06 05:07:37;;;;;;;13.88;9.50;;;7.80;75.50;;;;;;5000786;28;20060;-53
2022/12/06 05:10:06;;;;;;;13.95;10.15;;;7.80;75.40;;;;;;4993980;28;20130;-53
2022/12/06 05:12:34;;;;;;;15.18;9.90;;;7.80;75.50;;;;;;4993607;28;20042;-53
2022/12/06 05:15:03;;;;;;;16.10;9.32;;;7.80;75.40;;;;;;4998707;28;20088;-50
2022/12/06 05:17:30;;;;;;;14.73;10.07;;;7.80;75.50;;;;;;5006151;28;20518;-52
2022/12/06 05:19:59;;;;;;;13.30;9.38;;;7.80;75.40;;;;;;5019420;23;20129;-45
2022/12/06 05:22:33;;;;;;;13.48;9.60;;;7.80;75.50;;;;;;4998220;28;20089;-48
2022/12/06 05:25:02;;;;;;;14.68;10.50;;;7.90;75.50;;;;;;4994756;28;20080;-47
2022/12/06 05:27:29;;;;;;;15.50;9.98;;;7.90;75.40;;;;;;4992530;28;20042;-47
2022/12/06 05:30:05;;;;;;;12.55;8.45;;;7.90;75.50;;;;;;4993766;28;20165;-47
2022/12/06 05:32:42;;;;;;;12.50;8.98;;;7.90;75.50;;;;;;4998200;28;20044;-48
2022/12/06 05:35:11;;;;;;;12.98;8.75;;;7.90;75.50;;;;;;4992784;28;20046;-51
2022/12/06 05:37:40;;;;;;;10.05;7.78;;;7.90;75.40;;;;;;4974081;28;20046;-52
2022/12/06 05:40:07;;;;;;;12.32;8.57;;;7.90;75.40;;;;;;4996536;28;20121;-51
2022/12/06 05:42:38;;;;;;;11.88;8.20;;;8.00;75.50;;;;;;4999982;28;20041;-51
2022/12/06 05:45:08;;;;;;;10.65;8.15;;;8.00;75.50;;;;;;4997268;28;20046;-49
2022/12/06 05:47:37;;;;;;;12.00;7.60;;;8.00;75.40;;;;;;4991652;28;20537;-47
2022/12/06 05:50:07;;;;;;;12.95;7.85;;;8.00;75.40;;;;;;4993071;28;20045;-51
2022/12/06 05:52:33;;;;;;;15.35;8.73;;;8.00;75.40;;;;;;5001584;28;20426;-51
2022/12/06 05:55:00;;;;;;;12.95;8.93;;;8.10;75.40;;;;;;4992747;28;20038;-52
2022/12/06 05:57:27;;;;;;;12.85;8.32;;;8.00;75.40;;;;;;4992520;28;20066;-48
2022/12/06 05:59:53;;;;;;;11.13;7.88;;;8.10;75.50;;;;;;4990197;28;20410;-49
2022/12/06 06:02:20;;;;;;;11.38;8.35;;;8.10;75.40;;;;;;4989005;28;20057;-48
2022/12/06 06:04:47;;;;;;;16.83;8.23;;;8.10;75.40;;;;;;4982786;28;20093;-49
2022/12/06 06:07:16;;;;;;;13.25;7.00;;;8.10;75.50;;;;;;4990514;28;20414;-50
2022/12/06 06:09:43;;;;;;;11.93;8.25;;;8.10;75.40;;;;;;4995632;28;20038;-50
2022/12/06 06:12:12;;;;;;;12.43;7.75;;;8.10;75.50;;;;;;4992887;28;20125;-49
2022/12/06 06:14:39;;;;;;;9.93;6.85;;;8.10;75.40;;;;;;4988671;28;20654;-51
2022/12/06 06:17:12;;;;;;;11.20;8.13;;;8.10;75.40;;;;;;4990132;28;20050;-50
2022/12/06 06:19:41;;;;;;;10.07;6.95;;;8.10;75.50;;;;;;4993944;28;20503;-46
2022/12/06 06:22:08;;;;;;;11.15;7.07;;;8.10;75.40;;;;;;4992114;28;20045;-51
2022/12/06 06:24:40;;;;;;;10.77;7.07;;;8.10;75.40;;;;;;4992079;28;20042;-49
2022/12/06 06:27:09;;;;;;;10.00;7.72;;;8.20;75.50;;;;;;4993246;28;20485;-51
2022/12/06 06:29:36;;;;;;;11.95;6.53;;;8.20;75.40;;;;;;4972548;28;20043;-50
2022/12/06 06:32:11;;;;;;;9.38;7.00;;;8.20;75.40;;;;;;4985363;28;20042;-48
2022/12/06 06:34:38;;;;;;;9.95;6.70;;;8.20;75.40;;;;;;4992257;28;20045;-46
2022/12/06 06:37:04;;;;;;;9.73;6.82;;;8.20;75.40;;;;;;4999875;28;20062;-47
2022/12/06 06:39:33;;;;;;;10.32;7.30;;;8.20;75.40;;;;;;4996796;28;20041;-48
2022/12/06 06:42:03;;;;;;;10.13;7.38;;;8.20;75.50;;;;;;4991096;28;20042;-48
2022/12/06 06:44:30;;;;;;;9.48;7.13;;;8.20;75.40;;;;;;4990166;28;20048;-50
2022/12/06 06:46:56;;;;;;;9.15;6.25;;;8.20;75.40;;;;;;4993876;28;20580;-48
2022/12/06 06:49:23;;;;;;;11.93;7.30;;;8.20;75.40;;;;;;4997640;28;20066;-47
2022/12/06 06:51:50;;;;;;;9.10;6.85;;;8.20;75.30;;;;;;4989011;28;20057;-50
2022/12/06 06:54:17;;;;;;;10.23;6.72;;;8.20;75.30;;;;;;4990761;28;20117;-51
2022/12/06 06:56:45;;;;;;;11.20;7.05;;;8.20;75.30;;;;;;4994719;28;20042;-48
2022/12/06 06:59:15;;;;;;;11.88;7.47;;;8.20;75.40;;;;;;4991226;28;20058;-51
2022/12/06 07:01:44;;;;;;;9.73;7.40;;;8.20;75.30;;;;;;4990392;28;20049;-51
2022/12/06 07:04:11;;;;;;;8.93;6.65;;;8.30;75.40;;;;;;4990793;28;20077;-52
2022/12/06 07:06:37;;;;;;;10.88;6.95;;;8.30;75.40;;;;;;4997435;28;20043;-51
2022/12/06 07:09:05;;;;;;;10.27;7.15;;;8.20;75.40;;;;;;4996186;28;20046;-50
2022/12/06 07:11:31;;;;;;;9.10;7.20;;;8.20;75.40;;;;;;4990862;28;20046;-52
2022/12/06 07:13:58;;;;;;;9.73;7.50;;;8.30;75.60;;;;;;5000011;28;20072;-51
2022/12/06 07:16:25;;;;;;;10.43;6.90;;;8.30;75.50;;;;;;5003202;28;20026;-49
2022/12/06 07:18:53;;;;;;;8.73;6.18;;;8.30;75.50;;;;;;4997070;28;20054;-49
2022/12/06 07:21:24;;;;;;;9.23;6.45;;;8.30;75.50;;;;;;4994865;28;20433;-49
2022/12/06 07:23:58;;;;;;;11.52;7.00;;;8.30;75.50;;;;;;5002080;28;20050;-51
2022/12/06 07:26:27;;;;;;;9.40;7.00;;;8.30;75.60;;;;;;4973094;28;20042;-49
2022/12/06 07:28:58;;;;;;;10.80;7.57;;;8.30;75.50;;;;;;4990705;28;20677;-50
2022/12/06 07:31:27;;;;;;;8.07;7.00;;;8.30;75.50;;;;;;4996679;28;20038;-52
2022/12/06 07:33:58;;;;;;;9.90;7.00;;;8.30;75.60;;;;;;4994368;28;20121;-52
2022/12/06 07:36:27;;;;;;;11.68;7.75;;;8.30;75.50;;;;;;4989726;28;20030;-51
2022/12/06 07:38:56;;;;;;;12.15;7.60;;;8.30;75.60;;;;;;4990640;28;20038;-48
2022/12/06 07:47:23;;;;;;;9.95;7.00;;;8.40;75.50;;;;;;4986335;28;20050;-48
2022/12/06 07:49:52;;;;;;;9.70;6.65;;;8.40;75.50;;;;;;4992952;28;20053;-48
2022/12/06 07:52:22;;;;;;;13.70;8.25;;;8.40;75.50;;;;;;4993172;28;20569;-47
2022/12/06 07:54:52;;;;;;;9.07;6.93;;;8.40;75.50;;;;;;4997799;28;20081;-52
2022/12/06 07:57:20;;;;;;;10.57;7.18;;;8.40;75.50;;;;;;4990085;28;20056;-52
2022/12/06 07:59:47;;;;;;;11.77;7.78;;;8.40;75.60;;;;;;4990969;28;20061;-52
2022/12/06 08:02:22;;;;;;;9.85;7.03;;;8.40;75.50;;;;;;4996391;28;20041;-47
2022/12/06 08:04:50;;;;;;;11.75;7.38;;;8.40;75.70;;;;;;4991230;28;20038;-51
2022/12/06 08:07:19;;;;;;;10.10;7.00;;;8.50;75.60;;;;;;4993969;28;20610;-49
2022/12/06 08:09:47;;;;;;;11.10;8.05;;;8.50;75.60;;;;;;4997661;28;20039;-50
2022/12/06 08:12:19;;;;;;;11.70;7.47;;;8.50;75.60;;;;;;5002127;28;20487;-48
2022/12/06 08:14:50;;;;;;;11.50;6.80;;;8.50;75.60;;;;;;4995157;28;20034;-51
2022/12/06 08:17:28;;;;;;;10.38;7.55;;;8.50;75.50;;;;;;4993620;28;20038;-50
2022/12/06 08:19:55;;;;;;;11.45;7.47;;;8.50;75.50;;;;;;4997316;28;20037;-47
2022/12/06 08:22:22;;;;;;;11.10;6.57;;;8.50;75.50;;;;;;5004443;28;20038;-49
2022/12/06 08:24:51;;;;;;;10.82;7.60;;;8.50;75.50;;;;;;4987051;28;20046;-52
2022/12/06 08:27:20;;;;;;;12.05;7.13;;;8.50;75.40;;;;;;4993907;28;20077;-51
2022/12/06 08:29:53;;;;;;;9.02;7.60;;;8.60;75.50;;;;;;4999256;28;20061;-50
2022/12/06 08:32:22;;;;;;;11.60;6.70;;;8.60;75.50;;;;;;5005390;28;20038;-49
2022/12/06 08:34:51;;;;;;;11.52;6.82;;;8.60;75.40;;;;;;4986715;28;20037;-52
2022/12/06 08:37:19;;;;;;;10.55;6.88;;;8.60;75.30;;;;;;4993503;28;20565;-49
2022/12/06 08:39:47;;;;;;;11.00;8.00;;;8.60;75.30;;;;;;4996761;28;20040;-51
2022/12/06 08:42:13;;;;;;;10.30;6.63;;;8.60;75.30;;;;;;4998369;28;20049;-52
2022/12/06 08:44:40;;;;;;;8.40;6.20;;;8.60;75.30;;;;;;4993926;28;20396;-50
2022/12/06 08:47:09;;;;;;;10.90;6.85;;;8.70;75.30;;;;;;4993209;28;20054;-52
2022/12/06 08:49:36;;;;;;;8.93;6.78;;;8.70;75.30;;;;;;4995758;28;20060;-48
2022/12/06 08:52:02;;;;;;;14.65;6.75;;;8.70;75.30;;;;;;4995277;28;20042;-49
2022/12/06 08:54:29;;;;;;;10.40;7.25;;;8.70;75.30;;;;;;4993360;28;20407;-48
2022/12/06 08:56:57;;;;;;;9.25;7.00;;;8.70;75.30;;;;;;4994211;28;20060;-47
2022/12/06 08:59:24;;;;;;;11.63;7.18;;;8.70;75.60;;;;;;4999065;28;20048;-48
2022/12/06 09:01:58;;;;;;;11.05;7.15;;;8.70;75.30;;;;;;4993311;28;20580;-51
2022/12/06 09:04:27;;;;;;;10.15;7.15;;;8.70;75.30;;;;;;4993811;28;20046;-48
2022/12/06 09:06:54;;;;;;;9.45;7.47;;;8.70;75.30;;;;;;4992840;28;20598;-48
2022/12/06 09:09:23;;;;;;;10.30;7.13;;;8.70;75.20;;;;;;4999822;28;20064;-48
2022/12/06 09:11:50;;;;;;;11.63;7.32;;;8.80;75.30;;;;;;4989965;28;20042;-52
2022/12/06 09:14:17;;;;;;;10.93;7.13;;;8.80;75.30;;;;;;4997839;28;20046;-52
2022/12/06 09:16:51;;;;;;;10.35;7.57;;;8.80;75.30;;;;;;4977919;28;20039;-49
2022/12/06 09:19:18;;;;;;;10.32;7.88;;;8.80;75.20;;;;;;4993414;28;20130;-48
2022/12/06 09:21:45;;;;;;;8.98;7.40;;;8.80;75.20;;;;;;4995510;28;20042;-52
2022/12/06 09:24:16;;;;;;;9.52;6.82;;;8.80;75.20;;;;;;5005095;28;20089;-51
2022/12/06 09:26:43;;;;;;;11.55;6.25;;;8.90;75.30;;;;;;4994882;28;20052;-50
2022/12/06 09:29:13;;;;;;;8.13;6.25;;;8.90;75.20;;;;;;4993063;28;20133;-51
2022/12/06 09:31:42;;;;;;;12.68;7.30;;;8.90;75.20;;;;;;4993195;28;20061;-47
2022/12/06 09:34:17;;;;;;;12.10;6.53;;;8.90;75.20;;;;;;4996413;28;20383;-52
2022/12/06 09:37:11;;;;;;;9.52;6.43;;;8.90;75.10;;;;;;4983397;28;20051;-52
2022/12/06 09:39:45;;;;;;;9.68;6.55;;;9.00;75.30;;;;;;4991487;28;20055;-48
2022/12/06 09:42:21;;;;;;;8.18;5.93;;;9.00;74.90;;;;;;4991809;28;20487;-50
2022/12/06 09:45:14;;;;;;;8.75;5.88;;;9.00;74.80;;;;;;4998989;28;20045;-51
2022/12/06 09:47:54;;;;;;;8.90;6.25;;;9.00;74.80;;;;;;5005411;28;20046;-49
2022/12/06 09:50:26;;;;;;;10.43;6.95;;;9.10;74.80;;;;;;4991829;28;20043;-52
2022/12/06 09:53:14;;;;;;;12.52;7.03;;;9.10;74.70;;;;;;4989465;28;20042;-49
2022/12/06 09:56:05;;;;;;;8.45;5.75;;;9.10;74.60;;;;;;5000987;28;20038;-50
2022/12/06 09:59:10;;;;;;;9.50;6.47;;;9.10;74.70;;;;;;4992699;28;20038;-49
2022/12/06 10:01:53;;;;;;;8.10;6.05;;;9.10;74.70;;;;;;4993033;28;20042;-52
2022/12/06 10:05:05;;;;;;;8.80;5.28;;;9.20;74.50;;;;;;4993016;28;20039;-48
2022/12/06 10:07:41;;;;;;;7.60;5.32;;;9.20;74.50;;;;;;4991832;28;20049;-49
2022/12/06 10:10:43;;;;;;;10.13;6.13;;;9.20;74.40;;;;;;4993232;28;20089;-51
2022/12/06 10:13:32;;;;;;;6.97;5.47;;;9.20;74.50;;;;;;4996676;28;20052;-50
2022/12/06 10:16:46;;;;;;;9.75;6.20;;;9.20;74.40;;;;;;4991120;28;20046;-49
2022/12/06 10:19:50;;;;;;;7.53;5.75;;;9.20;74.30;;;;;;4958477;28;20089;-52
2022/12/06 10:22:29;;;;;;;7.32;5.22;;;9.30;74.00;;;;;;5001661;28;20478;-52
2022/12/06 10:25:11;;;;;;;8.07;5.32;;;9.30;73.90;;;;;;4993945;28;20122;-48
2022/12/06 10:27:49;;;;;;;8.23;4.82;;;9.30;73.80;;;;;;4991363;28;20074;-51
2022/12/06 10:30:18;;;;;;;6.40;4.35;;;9.30;73.50;;;;;;4992381;28;20034;-47
2022/12/06 10:32:56;;;;;;;6.90;4.35;;;9.20;73.40;;;;;;4994098;28;20077;-48
2022/12/06 10:35:43;;;;;;;6.10;4.82;;;9.30;73.80;;;;;;5000551;28;20085;-48
2022/12/06 10:38:21;;;;;;;5.68;4.35;;;9.30;74.10;;;;;;4991554;28;20473;-49
2022/12/06 10:41:23;;;;;;;8.43;5.03;;;9.30;74.00;;;;;;4993139;28;20034;-49
2022/12/06 10:43:59;;;;;;;7.25;4.60;;;9.40;73.60;;;;;;4993437;28;20043;-52
2022/12/06 10:47:05;;;;;;;9.07;5.43;;;9.50;73.70;;;;;;4992302;28;20465;-49
2022/12/06 10:49:49;;;;;;;6.45;4.68;;;9.50;73.70;;;;;;4992140;28;20070;-52
2022/12/06 10:52:43;;;;;;;5.63;4.63;;;9.60;73.40;;;;;;5001137;28;20121;-50
2022/12/06 10:55:30;;;;;;;5.55;4.43;;;9.60;72.90;;;;;;4987305;28;20442;-52
2022/12/06 10:58:14;;;;;;;5.20;4.47;;;9.60;73.00;;;;;;4991233;28;20089;-52
2022/12/06 11:00:53;;;;;;;5.70;5.07;;;9.60;73.00;;;;;;5000302;28;20409;-49
2022/12/06 11:03:29;;;;;;;6.70;4.93;;;9.70;73.60;;;;;;5001289;28;20045;-49
2022/12/06 11:06:06;;;;;;;6.32;4.57;;;9.70;73.10;;;;;;4985026;28;20057;-48
2022/12/06 11:08:38;;;;;;;6.15;4.28;;;9.70;73.00;;;;;;4991347;28;20046;-50
2022/12/06 11:11:12;;;;;;;7.32;5.35;;;9.70;72.90;;;;;;4996323;28;20034;-52
2022/12/06 11:14:00;;;;;;;6.15;5.30;;;9.70;72.70;;;;;;4991018;28;20093;-51
2022/12/06 11:16:43;;;;;;;6.60;4.97;;;9.80;73.30;;;;;;4991051;28;20494;-52
2022/12/06 11:19:38;;;;;;;5.85;5.25;;;9.80;72.60;;;;;;4996488;28;20478;-50
2022/12/06 11:22:08;;;;;;;7.68;4.95;;;9.80;72.40;;;;;;4985660;28;20046;-51
2022/12/06 11:25:05;;;;;;;5.05;4.28;;;9.80;72.60;;;;;;4991225;28;20046;-51
2022/12/06 11:27:37;;;;;;;5.43;4.38;;;9.90;72.60;;;;;;4954786;28;20065;-49
2022/12/06 11:30:12;;;;;;;6.85;4.32;;;9.90;72.50;;;;;;4990500;28;20065;-49
2022/12/06 11:32:51;;;;;;;6.20;4.47;;;9.90;72.40;;;;;;4989967;28;20053;-51
2022/12/06 11:35:21;;;;;;;6.07;4.95;;;10.00;72.30;;;;;;4991172;28;20070;-48
2022/12/06 11:37:54;;;;;;;5.03;4.47;;;10.00;72.20;;;;;;4997368;28;20576;-47
2022/12/06 11:40:34;;;;;;;5.53;4.05;;;10.00;72.00;;;;;;4994818;28;20084;-49
2022/12/06 11:43:07;;;;;;;6.78;4.28;;;10.00;71.60;;;;;;4983879;28;20055;-49
2022/12/06 11:45:38;;;;;;;6.90;4.80;;;10.00;71.40;;;;;;4991618;28;20050;-48
2022/12/06 11:48:20;;;;;;;4.53;3.90;;;10.00;71.60;;;;;;4995004;28;20134;-49
2022/12/06 11:50:51;;;;;;;4.25;3.88;;;10.00;71.80;;;;;;4983244;28;20376;-49
2022/12/06 11:53:27;;;;;;;5.82;3.83;;;10.00;71.90;;;;;;4990383;28;20101;-48
2022/12/06 11:55:59;;;;;;;5.32;3.38;;;10.00;71.60;;;;;;5000160;28;20069;-48
2022/12/06 11:58:40;;;;;;;4.80;2.95;;;10.00;71.20;;;;;;4999867;28;20466;-48
2022/12/06 12:01:09;;;;;;;4.80;3.58;;;10.00;70.80;;;;;;4990434;28;20502;-48
2022/12/06 12:03:40;;;;;;;4.43;3.75;;;10.00;71.00;;;;;;4990732;28;20039;-48
2022/12/06 12:06:25;;;;;;;5.25;3.90;;;10.00;70.50;;;;;;5002017;28;20042;-50
2022/12/06 12:08:57;;;;;;;5.30;4.00;;;9.90;70.50;;;;;;4998095;28;20046;-50
2022/12/06 12:11:40;;;;;;;4.53;4.03;;;9.90;70.50;;;;;;4991127;28;20125;-52
2022/12/06 12:14:16;;;;;;;6.05;3.90;;;9.80;70.70;;;;;;4995785;28;20029;-48
2022/12/06 12:16:48;;;;;;;5.13;4.15;;;9.80;70.70;;;;;;5003296;28;20046;-50
2022/12/06 12:19:47;;;;;;;5.63;4.03;;;9.70;70.70;;;;;;4995220;28;20062;-51
2022/12/06 12:22:22;;;;;;;4.78;3.88;;;9.70;71.00;;;;;;4975838;28;20057;-50
2022/12/06 12:24:59;;;;;;;6.03;3.92;;;9.60;71.20;;;;;;4998199;28;20078;-49
2022/12/06 12:27:47;;;;;;;4.38;3.58;;;9.60;71.40;;;;;;4990489;28;20065;-52
2022/12/06 12:30:31;;;;;;;5.10;4.18;;;9.70;71.70;;;;;;4991299;28;20060;-48
2022/12/06 12:33:13;;;;;;;7.78;5.25;;;9.70;71.60;;;;;;4985317;28;20522;-48
2022/12/06 12:35:55;;;;;;;9.57;5.68;;;9.80;71.50;;;;;;4994684;28;20046;-49
2022/12/06 12:38:36;;;;;;;8.48;5.15;;;9.90;71.00;;;;;;4990352;28;20058;-48
2022/12/06 12:41:27;;;;;;;6.90;4.50;;;9.90;71.50;;;;;;4990727;28;20046;-49
2022/12/06 12:44:04;;;;;;;5.85;3.67;;;10.00;70.30;;;;;;4996731;28;20050;-50
2022/12/06 12:46:57;;;;;;;4.47;3.47;;;10.10;70.40;;;;;;4984219;28;20045;-49
2022/12/06 12:49:23;;;;;;;;;;;10.10;70.90;;;;;;4994970;28;20046;-48
2022/12/06 12:51:54;;;;;;;5.13;3.33;;;10.20;70.40;;;;;;4997351;28;19929;-52
2022/12/06 12:54:35;;;;;;;4.32;2.85;;;10.20;70.40;;;;;;5001729;28;20096;-48
2022/12/06 12:57:09;;;;;;;3.78;3.00;;;10.30;69.80;;;;;;4988163;28;20618;-48
2022/12/06 12:59:39;;;;;;;3.30;2.88;;;10.30;69.90;;;;;;4994427;28;20038;-47
2022/12/06 13:02:21;;;;;;;3.72;3.17;;;10.30;69.70;;;;;;5002749;28;20042;-48
2022/12/06 13:04:52;;;;;;;4.35;3.13;;;10.30;69.30;;;;;;4994218;28;20125;-48
2022/12/06 13:07:41;;;;;;;4.72;3.50;;;10.30;69.60;;;;;;4993230;28;20080;-48
2022/12/06 13:10:25;;;;;;;3.42;3.00;;;10.30;69.60;;;;;;4999816;28;20483;-51
2022/12/06 13:13:28;;;;;;;3.58;2.53;;;10.30;68.70;;;;;;4998089;28;20046;-50
2022/12/06 13:16:01;;;;;;;3.05;2.50;;;10.30;68.60;;;;;;4985310;28;20102;-50
2022/12/06 13:18:46;;;;;;;5.20;2.95;;;10.30;68.70;;;;;;4993910;28;20050;-48
2022/12/06 13:21:36;;;;;;;3.05;2.72;;;10.30;68.40;;;;;;4995908;28;20561;-51
2022/12/06 13:24:19;;;;;;;4.05;2.92;;;10.20;68.30;;;;;;4995404;28;20035;-48
2022/12/06 13:26:54;;;;;;;6.22;3.17;;;10.20;68.50;;;;;;4994004;28;20050;-48
2022/12/06 13:30:07;;;;;;;5.00;3.03;;;10.10;68.70;;;;;;4995773;28;20459;-48
2022/12/06 13:32:57;;;;;;;4.68;3.50;;;10.10;69.00;;;;;;4960747;28;20058;-51
2022/12/06 13:35:39;;;;;;;4.00;2.80;;;10.10;69.10;;;;;;4993763;28;20073;-50
2022/12/06 13:38:16;;;;;;;6.60;3.35;;;10.10;69.70;;;;;;4998409;28;20071;-49
2022/12/06 13:40:57;;;;;;;4.13;2.88;;;10.20;69.70;;;;;;4987907;28;20105;-49
2022/12/06 13:43:43;;;;;;;5.70;3.33;;;10.30;69.60;;;;;;4992634;28;20073;-49